createdAt,value
2024-02-26T00:00:34.858Z,20.08
2024-02-26T00:01:34.776Z,20.08
2024-02-26T00:02:34.809Z,20.08
2024-02-26T00:03:34.904Z,20.07
2024-02-26T00:04:34.845Z,20.08
2024-02-26T00:05:34.907Z,20.08
2024-02-26T00:06:34.936Z,20.08
2024-02-26T00:07:34.907Z,20.08
2024-02-26T00:08:34.928Z,20.08
2024-02-26T00:09:34.943Z,20.08
2024-02-26T00:10:34.969Z,20.07
2024-02-26T00:11:35.043Z,20.08
2024-02-26T00:12:35.014Z,20.08
2024-02-26T00:13:35.071Z,20.07
2024-02-26T00:14:35.081Z,20.07
2024-02-26T00:15:35.101Z,20.07
2024-02-26T00:16:35.109Z,20.06
2024-02-26T00:17:35.178Z,20.07
2024-02-26T00:18:35.303Z,20.06
2024-02-26T00:19:35.270Z,20.07
2024-02-26T00:20:35.241Z,20.07
2024-02-26T00:21:35.267Z,20.07
2024-02-26T00:22:35.278Z,20.07
2024-02-26T00:23:35.310Z,20.06
2024-02-26T00:24:35.315Z,20.06
2024-02-26T00:25:35.382Z,20.07
2024-02-26T00:26:35.359Z,20.06
2024-02-26T00:27:35.393Z,20.05
2024-02-26T00:28:35.428Z,20.07
2024-02-26T00:29:35.436Z,20.06
2024-02-26T00:30:35.526Z,20.06
2024-02-26T00:31:35.497Z,20.06
2024-02-26T00:32:35.542Z,20.06
2024-02-26T00:33:35.762Z,20.07
2024-02-26T00:34:35.599Z,20.07
2024-02-26T00:35:35.573Z,20.06
2024-02-26T00:36:35.608Z,20.06
2024-02-26T00:37:35.607Z,20.06
2024-02-26T00:38:35.628Z,20.06
2024-02-26T00:39:35.649Z,20.06
2024-02-26T00:40:35.718Z,20.06
2024-02-26T00:41:35.727Z,20.06
2024-02-26T00:42:35.754Z,20.06
2024-02-26T00:43:35.757Z,20.06
2024-02-26T00:44:35.787Z,20.07
2024-02-26T00:45:35.815Z,20.06
2024-02-26T00:46:35.835Z,20.06
2024-02-26T00:47:35.909Z,20.05
2024-02-26T00:48:35.985Z,20.05
2024-02-26T00:49:35.955Z,20.06
2024-02-26T00:50:35.963Z,20.06
2024-02-26T00:51:36.010Z,20.06
2024-02-26T00:52:35.982Z,20.06
2024-02-26T00:53:36.022Z,20.06
2024-02-26T00:54:36.035Z,20.06
2024-02-26T00:55:36.102Z,20.05
2024-02-26T00:56:36.094Z,20.05
2024-02-26T00:57:36.128Z,20.05
2024-02-26T00:58:36.167Z,20.05
2024-02-26T00:59:36.167Z,20.06
2024-02-26T01:00:36.196Z,20.05
2024-02-26T01:01:36.202Z,20.05
2024-02-26T01:02:36.252Z,20.06
2024-02-26T01:03:36.298Z,20.06
2024-02-26T01:04:36.294Z,20.05
2024-02-26T01:05:36.286Z,20.05
2024-02-26T01:06:36.401Z,20.05
2024-02-26T01:07:36.454Z,20.05
2024-02-26T01:08:36.380Z,20.05
2024-02-26T01:09:36.386Z,20.05
2024-02-26T01:10:36.432Z,20.05
2024-02-26T01:11:36.496Z,20.05
2024-02-26T01:12:36.462Z,20.05
2024-02-26T01:13:36.503Z,20.05
2024-02-26T01:14:36.523Z,20.05
2024-02-26T01:15:36.536Z,20.05
2024-02-26T01:16:36.591Z,20.05
2024-02-26T01:17:36.667Z,20.04
2024-02-26T01:18:36.745Z,20.05
2024-02-26T01:19:36.675Z,20.05
2024-02-26T01:20:36.642Z,20.05
2024-02-26T01:21:36.689Z,20.05
2024-02-26T01:22:36.684Z,20.05
2024-02-26T01:23:36.728Z,20.05
2024-02-26T01:24:36.729Z,20.05
2024-02-26T01:25:36.763Z,20.05
2024-02-26T01:26:36.761Z,20.05
2024-02-26T01:27:36.794Z,20.05
2024-02-26T01:28:36.842Z,20.05
2024-02-26T01:29:36.852Z,20.05
2024-02-26T01:30:36.899Z,20.04
2024-02-26T01:31:36.917Z,20.05
2024-02-26T01:32:36.965Z,20.04
2024-02-26T01:33:37.099Z,20.05
2024-02-26T01:34:37.014Z,20.05
2024-02-26T01:35:37.005Z,20.05
2024-02-26T01:36:37.010Z,20.05
2024-02-26T01:37:37.023Z,20.05
2024-02-26T01:38:37.056Z,20.05
2024-02-26T01:39:37.082Z,20.05
2024-02-26T01:40:37.092Z,20.04
2024-02-26T01:41:37.114Z,20.05
2024-02-26T01:42:37.136Z,20.05
2024-02-26T01:43:37.161Z,20.05
2024-02-26T01:44:37.186Z,20.04
2024-02-26T01:45:37.216Z,20.04
2024-02-26T01:46:37.223Z,20.04
2024-02-26T01:47:37.251Z,20.04
2024-02-26T01:48:37.385Z,20.04
2024-02-26T01:49:37.371Z,20.03
2024-02-26T01:50:37.317Z,20.04
2024-02-26T01:51:37.387Z,20.04
2024-02-26T01:52:37.383Z,20.04
2024-02-26T01:53:37.396Z,20.05
2024-02-26T01:54:37.431Z,20.03
2024-02-26T01:55:37.446Z,20.04
2024-02-26T01:56:37.471Z,20.04
2024-02-26T01:57:37.522Z,20.03
2024-02-26T01:58:37.544Z,20.04
2024-02-26T01:59:37.565Z,20.03
2024-02-26T02:00:37.661Z,20.04
2024-02-26T02:01:37.572Z,20.04
2024-02-26T02:02:37.609Z,20.03
2024-02-26T02:03:37.726Z,20.04
2024-02-26T02:04:37.650Z,20.04
2024-02-26T02:05:37.685Z,20.04
2024-02-26T02:06:37.764Z,20.03
2024-02-26T02:07:37.733Z,20.04
2024-02-26T02:08:37.760Z,20.04
2024-02-26T02:09:37.769Z,20.04
2024-02-26T02:10:37.818Z,20.05
2024-02-26T02:11:37.840Z,20.03
2024-02-26T02:12:37.872Z,20.04
2024-02-26T02:13:37.885Z,20.05
2024-02-26T02:14:37.900Z,20.04
2024-02-26T02:15:37.969Z,20.03
2024-02-26T02:16:37.963Z,20.04
2024-02-26T02:17:38.042Z,20.04
2024-02-26T02:18:38.068Z,20.04
2024-02-26T02:19:38.129Z,20.04
2024-02-26T02:20:38.062Z,20.05
2024-02-26T02:21:38.098Z,20.05
2024-02-26T02:22:38.114Z,20.04
2024-02-26T02:23:38.165Z,20.04
2024-02-26T02:24:38.362Z,20.04
2024-02-26T02:25:38.237Z,20.04
2024-02-26T02:26:38.215Z,20.04
2024-02-26T02:27:38.321Z,20.04
2024-02-26T02:28:38.292Z,20.03
2024-02-26T02:29:38.282Z,20.03
2024-02-26T02:30:38.321Z,20.04
2024-02-26T02:31:38.407Z,20.04
2024-02-26T02:32:38.371Z,20.04
2024-02-26T02:33:38.605Z,20.04
2024-02-26T02:34:38.502Z,20.04
2024-02-26T02:35:38.428Z,20.04
2024-02-26T02:36:38.480Z,20.03
2024-02-26T02:37:38.488Z,20.03
2024-02-26T02:38:38.512Z,20.04
2024-02-26T02:39:38.524Z,20.04
2024-02-26T02:40:38.561Z,20.04
2024-02-26T02:41:38.592Z,20.04
2024-02-26T02:42:38.610Z,20.04
2024-02-26T02:43:38.620Z,20.04
2024-02-26T02:44:38.647Z,20.04
2024-02-26T02:45:38.678Z,20.04
2024-02-26T02:46:38.700Z,20.04
2024-02-26T02:47:38.777Z,20.03
2024-02-26T02:48:38.823Z,20.04
2024-02-26T02:49:38.902Z,20.04
2024-02-26T02:50:38.820Z,20.03
2024-02-26T02:51:38.865Z,20.04
2024-02-26T02:52:38.862Z,20.05
2024-02-26T02:53:38.940Z,20.03
2024-02-26T02:54:38.890Z,20.04
2024-02-26T02:55:38.916Z,20.04
2024-02-26T02:56:38.939Z,20.04
2024-02-26T02:57:38.956Z,20.04
2024-02-26T02:58:38.993Z,20.04
2024-02-26T02:59:39.022Z,20.03
2024-02-26T03:00:39.161Z,20.04
2024-02-26T03:01:39.072Z,20.04
2024-02-26T03:02:39.096Z,20.04
2024-02-26T03:03:39.125Z,20.04
2024-02-26T03:04:39.231Z,20.04
2024-02-26T03:05:39.195Z,20.04
2024-02-26T03:06:39.290Z,20.04
2024-02-26T03:07:39.190Z,20.04
2024-02-26T03:08:39.363Z,20.04
2024-02-26T03:09:39.226Z,20.04
2024-02-26T03:10:39.246Z,20.04
2024-02-26T03:11:39.278Z,20.04
2024-02-26T03:12:39.290Z,20.03
2024-02-26T03:13:39.332Z,20.04
2024-02-26T03:14:39.371Z,20.04
2024-02-26T03:15:39.408Z,20.04
2024-02-26T03:16:39.423Z,20.04
2024-02-26T03:17:39.485Z,20.04
2024-02-26T03:18:39.534Z,20.03
2024-02-26T03:19:39.487Z,20.03
2024-02-26T03:20:39.608Z,20.03
2024-02-26T03:21:39.497Z,20.03
2024-02-26T03:22:39.554Z,20.04
2024-02-26T03:23:39.650Z,20.04
2024-02-26T03:24:39.617Z,20.04
2024-02-26T03:25:39.612Z,20.04
2024-02-26T03:26:39.680Z,20.04
2024-02-26T03:27:39.646Z,20.03
2024-02-26T03:28:39.678Z,20.03
2024-02-26T03:29:39.796Z,20.03
2024-02-26T03:30:39.736Z,20.03
2024-02-26T03:31:39.738Z,20.03
2024-02-26T03:32:39.831Z,20.03
2024-02-26T03:33:39.925Z,20.03
2024-02-26T03:34:40.002Z,20.03
2024-02-26T03:35:39.887Z,20.03
2024-02-26T03:36:39.895Z,20.03
2024-02-26T03:37:39.909Z,20.02
2024-02-26T03:38:39.982Z,20.04
2024-02-26T03:39:39.950Z,20.03
2024-02-26T03:40:39.979Z,20.03
2024-02-26T03:41:40.029Z,20.03
2024-02-26T03:42:40.027Z,20.04
2024-02-26T03:43:40.042Z,20.03
2024-02-26T03:44:40.128Z,20.03
2024-02-26T03:45:40.144Z,20.03
2024-02-26T03:46:40.117Z,20.03
2024-02-26T03:47:40.309Z,20.03
2024-02-26T03:48:40.304Z,20.04
2024-02-26T03:49:40.343Z,20.04
2024-02-26T03:50:40.303Z,20.04
2024-02-26T03:51:40.248Z,20.05
2024-02-26T03:52:40.245Z,20.06
2024-02-26T03:53:40.301Z,20.06
2024-02-26T03:54:40.285Z,20.08
2024-02-26T03:55:40.298Z,20.10
2024-02-26T03:56:40.335Z,20.11
2024-02-26T03:57:40.330Z,20.12
2024-02-26T03:58:40.350Z,20.14
2024-02-26T03:59:40.362Z,20.15
2024-02-26T04:00:40.455Z,20.17
2024-02-26T04:01:40.366Z,20.18
2024-02-26T04:02:40.377Z,20.19
2024-02-26T04:03:40.403Z,20.21
2024-02-26T04:04:40.461Z,20.22
2024-02-26T04:05:40.582Z,20.23
2024-02-26T04:06:40.429Z,20.24
2024-02-26T04:07:40.392Z,20.26
2024-02-26T04:08:40.427Z,20.27
2024-02-26T04:09:40.400Z,20.30
2024-02-26T04:10:40.496Z,20.31
2024-02-26T04:11:40.465Z,20.32
2024-02-26T04:12:40.452Z,20.34
2024-02-26T04:13:40.440Z,20.36
2024-02-26T04:14:40.492Z,20.37
2024-02-26T04:15:40.508Z,20.38
2024-02-26T04:16:40.546Z,20.38
2024-02-26T04:17:40.643Z,20.39
2024-02-26T04:18:40.741Z,20.41
2024-02-26T04:19:40.749Z,20.41
2024-02-26T04:20:40.737Z,20.42
2024-02-26T04:21:40.769Z,20.41
2024-02-26T04:22:40.844Z,20.43
2024-02-26T04:23:40.936Z,20.43
2024-02-26T04:24:40.981Z,20.44
2024-02-26T04:25:41.036Z,20.45
2024-02-26T04:26:41.178Z,20.45
2024-02-26T04:27:41.190Z,20.46
2024-02-26T04:28:41.266Z,20.47
2024-02-26T04:29:41.365Z,20.48
2024-02-26T04:30:41.396Z,20.48
2024-02-26T04:31:41.468Z,20.49
2024-02-26T04:32:41.555Z,20.49
2024-02-26T04:33:41.693Z,20.51
2024-02-26T04:34:41.686Z,20.51
2024-02-26T04:35:41.765Z,20.51
2024-02-26T04:36:41.805Z,20.53
2024-02-26T04:37:41.879Z,20.53
2024-02-26T04:38:41.949Z,20.55
2024-02-26T04:39:51.124Z,20.54
2024-02-26T04:40:49.211Z,20.54
2024-02-26T04:41:49.238Z,20.56
2024-02-26T04:42:49.203Z,20.58
2024-02-26T04:43:49.214Z,20.59
2024-02-26T04:44:49.301Z,20.59
2024-02-26T04:45:49.364Z,20.60
2024-02-26T04:46:49.440Z,20.61
2024-02-26T04:47:49.569Z,20.62
2024-02-26T04:48:49.710Z,20.62
2024-02-26T04:49:49.652Z,20.63
2024-02-26T04:50:49.822Z,20.63
2024-02-26T04:51:49.762Z,20.64
2024-02-26T04:52:49.839Z,20.65
2024-02-26T04:53:49.944Z,20.65
2024-02-26T04:54:49.956Z,20.64
2024-02-26T04:55:50.004Z,20.64
2024-02-26T04:56:50.084Z,20.65
2024-02-26T04:57:50.138Z,20.65
2024-02-26T04:58:50.193Z,20.65
2024-02-26T04:59:50.333Z,20.66
2024-02-26T05:00:50.359Z,20.65
2024-02-26T05:01:50.433Z,20.65
2024-02-26T05:02:50.524Z,20.66
2024-02-26T05:03:50.616Z,20.65
2024-02-26T05:04:50.614Z,20.65
2024-02-26T05:05:50.802Z,20.65
2024-02-26T05:06:50.761Z,20.65
2024-02-26T05:07:50.799Z,20.66
2024-02-26T05:08:50.922Z,20.66
2024-02-26T05:09:51.083Z,20.66
2024-02-26T05:10:51.015Z,20.66
2024-02-26T05:11:51.071Z,20.67
2024-02-26T05:12:51.096Z,20.67
2024-02-26T05:13:51.178Z,20.67
2024-02-26T05:14:51.281Z,20.68
2024-02-26T05:15:51.322Z,20.69
2024-02-26T05:16:51.344Z,20.68
2024-02-26T05:17:51.476Z,20.69
2024-02-26T05:18:51.543Z,20.70
2024-02-26T05:19:51.600Z,20.70
2024-02-26T05:20:51.621Z,20.71
2024-02-26T05:21:51.786Z,20.71
2024-02-26T05:22:51.688Z,20.71
2024-02-26T05:23:51.787Z,20.71
2024-02-26T05:24:51.806Z,20.72
2024-02-26T05:25:51.908Z,20.72
2024-02-26T05:26:52.004Z,20.73
2024-02-26T05:27:51.995Z,20.74
2024-02-26T05:28:52.070Z,20.74
2024-02-26T05:29:52.124Z,20.73
2024-02-26T05:30:52.144Z,20.75
2024-02-26T05:31:52.197Z,20.75
2024-02-26T05:32:52.284Z,20.75
2024-02-26T05:33:52.375Z,20.75
2024-02-26T05:34:52.387Z,20.75
2024-02-26T05:35:52.478Z,20.75
2024-02-26T05:36:52.489Z,20.77
2024-02-26T05:37:52.542Z,20.76
2024-02-26T05:38:52.666Z,20.77
2024-02-26T05:39:52.619Z,20.77
2024-02-26T05:40:52.677Z,20.77
2024-02-26T05:41:52.784Z,20.78
2024-02-26T05:42:52.786Z,20.77
2024-02-26T05:43:52.848Z,20.77
2024-02-26T05:44:52.926Z,20.77
2024-02-26T05:45:53.002Z,20.77
2024-02-26T05:46:52.991Z,20.78
2024-02-26T05:47:53.108Z,20.78
2024-02-26T05:48:53.225Z,20.77
2024-02-26T05:49:53.207Z,20.78
2024-02-26T05:50:53.243Z,20.77
2024-02-26T05:51:53.263Z,20.78
2024-02-26T05:52:53.301Z,20.77
2024-02-26T05:53:53.383Z,20.78
2024-02-26T05:54:53.404Z,20.78
2024-02-26T05:55:53.457Z,20.78
2024-02-26T05:56:53.526Z,20.79
2024-02-26T05:57:53.577Z,20.79
2024-02-26T05:58:53.605Z,20.79
2024-02-26T05:59:53.691Z,20.79
2024-02-26T06:00:53.761Z,20.79
2024-02-26T06:01:53.766Z,20.80
2024-02-26T06:02:53.829Z,20.80
2024-02-26T06:03:53.905Z,20.81
2024-02-26T06:04:53.920Z,20.80
2024-02-26T06:05:54.014Z,20.81
2024-02-26T06:06:54.031Z,20.81
2024-02-26T06:07:54.023Z,20.81
2024-02-26T06:08:54.074Z,20.81
2024-02-26T06:09:54.100Z,20.82
2024-02-26T06:10:54.184Z,20.82
2024-02-26T06:11:54.238Z,20.82
2024-02-26T06:12:54.275Z,20.82
2024-02-26T06:13:54.289Z,20.83
2024-02-26T06:14:54.334Z,20.83
2024-02-26T06:15:54.380Z,20.83
2024-02-26T06:16:54.407Z,20.84
2024-02-26T06:17:54.543Z,20.84
2024-02-26T06:18:54.609Z,20.84
2024-02-26T06:19:54.571Z,20.84
2024-02-26T06:20:54.651Z,20.84
2024-02-26T06:21:54.617Z,20.83
2024-02-26T06:22:54.656Z,20.83
2024-02-26T06:23:54.784Z,20.84
2024-02-26T06:24:54.810Z,20.86
2024-02-26T06:25:54.822Z,20.87
2024-02-26T06:26:54.896Z,20.89
2024-02-26T06:27:54.890Z,20.89
2024-02-26T06:28:54.932Z,20.90
2024-02-26T06:29:57.583Z,20.91
2024-02-26T06:30:54.997Z,20.90
2024-02-26T06:31:55.057Z,20.90
2024-02-26T06:32:55.103Z,20.90
2024-02-26T06:33:55.097Z,20.89
2024-02-26T06:34:55.136Z,20.89
2024-02-26T06:35:55.007Z,20.91
2024-02-26T06:36:54.985Z,20.92
2024-02-26T06:37:55.177Z,20.95
2024-02-26T06:38:55.049Z,20.97
2024-02-26T06:39:54.973Z,20.99
2024-02-26T06:40:55.121Z,21.01
2024-02-26T06:41:55.033Z,21.05
2024-02-26T06:42:55.021Z,21.07
2024-02-26T06:43:54.995Z,21.10
2024-02-26T06:44:55.044Z,21.15
2024-02-26T06:45:55.444Z,21.21
2024-02-26T06:46:55.000Z,21.26
2024-02-26T06:47:55.174Z,21.32
2024-02-26T06:48:55.994Z,21.36
2024-02-26T06:49:55.296Z,21.40
2024-02-26T06:50:55.121Z,21.45
2024-02-26T06:51:55.051Z,21.48
2024-02-26T06:52:55.006Z,21.52
2024-02-26T06:53:55.084Z,21.56
2024-02-26T06:54:55.947Z,21.60
2024-02-26T06:55:55.027Z,21.63
2024-02-26T06:56:55.083Z,21.65
2024-02-26T06:57:55.007Z,21.69
2024-02-26T06:58:55.016Z,21.71
2024-02-26T06:59:55.036Z,21.73
2024-02-26T07:00:55.446Z,21.75
2024-02-26T07:01:55.133Z,21.77
2024-02-26T07:02:55.145Z,21.78
2024-02-26T07:03:55.042Z,21.79
2024-02-26T07:04:55.032Z,21.81
2024-02-26T07:05:55.206Z,21.83
2024-02-26T07:06:55.152Z,21.86
2024-02-26T07:07:55.028Z,21.87
2024-02-26T07:08:55.058Z,21.90
2024-02-26T07:09:55.025Z,21.92
2024-02-26T07:10:55.066Z,21.93
2024-02-26T07:11:56.206Z,21.95
2024-02-26T07:12:55.229Z,21.96
2024-02-26T07:13:55.240Z,21.97
2024-02-26T07:14:55.273Z,21.98
2024-02-26T07:15:55.337Z,21.98
2024-02-26T07:16:55.361Z,22.00
2024-02-26T07:17:56.546Z,22.00
2024-02-26T07:18:55.821Z,22.01
2024-02-26T07:19:55.586Z,22.02
2024-02-26T07:20:55.600Z,22.02
2024-02-26T07:21:55.600Z,22.03
2024-02-26T07:22:55.640Z,22.05
2024-02-26T07:23:55.709Z,22.05
2024-02-26T07:24:55.757Z,22.07
2024-02-26T07:25:55.927Z,22.07
2024-02-26T07:26:55.824Z,22.08
2024-02-26T07:27:55.841Z,22.08
2024-02-26T07:28:55.871Z,22.08
2024-02-26T07:29:55.985Z,22.09
2024-02-26T07:30:55.939Z,22.09
2024-02-26T07:31:55.971Z,22.10
2024-02-26T07:32:56.098Z,22.11
2024-02-26T07:33:56.195Z,22.11
2024-02-26T07:34:56.117Z,22.10
2024-02-26T07:35:56.312Z,22.12
2024-02-26T07:36:56.161Z,22.14
2024-02-26T07:37:56.201Z,22.14
2024-02-26T07:38:56.288Z,22.16
2024-02-26T07:39:56.292Z,22.18
2024-02-26T07:41:02.867Z,22.18
2024-02-26T07:41:57.369Z,22.18
2024-02-26T07:42:56.399Z,22.20
2024-02-26T07:43:56.327Z,22.22
2024-02-26T07:44:56.441Z,22.25
2024-02-26T07:45:56.366Z,22.26
2024-02-26T07:46:56.333Z,22.26
2024-02-26T07:47:56.429Z,22.27
2024-02-26T07:48:56.516Z,22.29
2024-02-26T07:49:56.380Z,22.28
2024-02-26T07:50:56.515Z,22.29
2024-02-26T07:51:56.333Z,22.28
2024-02-26T07:52:56.371Z,22.30
2024-02-26T07:53:56.432Z,22.32
2024-02-26T07:54:56.389Z,22.34
2024-02-26T07:55:56.337Z,22.35
2024-02-26T07:56:56.362Z,22.38
2024-02-26T07:57:56.349Z,22.39
2024-02-26T07:58:56.352Z,22.39
2024-02-26T07:59:56.432Z,22.40
2024-02-26T08:00:56.469Z,22.41
2024-02-26T08:01:58.895Z,22.42
2024-02-26T08:02:56.465Z,22.44
2024-02-26T08:03:56.489Z,22.47
2024-02-26T08:04:56.376Z,22.48
2024-02-26T08:05:56.553Z,22.51
2024-02-26T08:06:56.411Z,22.53
2024-02-26T08:07:56.357Z,22.55
2024-02-26T08:08:56.425Z,22.57
2024-02-26T08:09:56.492Z,22.59
2024-02-26T08:10:56.397Z,22.61
2024-02-26T08:11:56.388Z,22.64
2024-02-26T08:12:56.363Z,22.64
2024-02-26T08:13:56.404Z,22.65
2024-02-26T08:14:56.975Z,22.65
2024-02-26T08:15:56.391Z,22.68
2024-02-26T08:16:56.383Z,22.69
2024-02-26T08:17:56.530Z,22.69
2024-02-26T08:18:56.511Z,22.70
2024-02-26T08:19:56.448Z,22.71
2024-02-26T08:20:56.471Z,22.72
2024-02-26T08:21:56.378Z,22.72
2024-02-26T08:22:56.382Z,22.72
2024-02-26T08:23:56.416Z,22.73
2024-02-26T08:24:56.389Z,22.75
2024-02-26T08:25:56.384Z,22.76
2024-02-26T08:26:56.402Z,22.77
2024-02-26T08:27:56.385Z,22.78
2024-02-26T08:28:57.015Z,22.77
2024-02-26T08:29:56.408Z,22.78
2024-02-26T08:30:56.448Z,22.79
2024-02-26T08:31:56.404Z,22.79
2024-02-26T08:32:56.450Z,22.79
2024-02-26T08:33:56.703Z,22.79
2024-02-26T08:34:56.480Z,22.78
2024-02-26T08:35:56.434Z,22.74
2024-02-26T08:36:56.438Z,22.72
2024-02-26T08:37:56.437Z,22.71
2024-02-26T08:38:56.434Z,22.68
2024-02-26T08:39:56.450Z,22.68
2024-02-26T08:40:56.461Z,22.65
2024-02-26T08:41:56.496Z,22.61
2024-02-26T08:42:56.434Z,22.57
2024-02-26T08:43:56.422Z,22.53
2024-02-26T08:44:56.512Z,22.49
2024-02-26T08:45:56.486Z,22.43
2024-02-26T08:46:56.442Z,22.39
2024-02-26T08:47:56.626Z,22.35
2024-02-26T08:48:56.629Z,22.30
2024-02-26T08:49:56.473Z,22.24
2024-02-26T08:50:56.480Z,22.23
2024-02-26T08:51:56.449Z,22.22
2024-02-26T08:52:56.438Z,22.26
2024-02-26T08:53:56.464Z,22.31
2024-02-26T08:54:56.459Z,22.37
2024-02-26T08:55:56.947Z,22.43
2024-02-26T08:56:56.544Z,22.49
2024-02-26T08:57:56.498Z,22.54
2024-02-26T08:58:56.442Z,22.58
2024-02-26T08:59:56.505Z,22.64
2024-02-26T09:00:56.466Z,22.67
2024-02-26T09:01:56.443Z,22.72
2024-02-26T09:02:56.496Z,22.76
2024-02-26T09:03:56.525Z,22.80
2024-02-26T09:04:56.460Z,22.83
2024-02-26T09:05:57.027Z,22.85
2024-02-26T09:06:56.951Z,22.86
2024-02-26T09:07:56.466Z,22.88
2024-02-26T09:08:59.596Z,22.91
2024-02-26T09:09:56.481Z,22.91
2024-02-26T09:10:56.560Z,22.92
2024-02-26T09:11:56.601Z,22.94
2024-02-26T09:12:56.618Z,22.94
2024-02-26T09:13:56.498Z,22.95
2024-02-26T09:14:56.479Z,22.95
2024-02-26T09:15:56.947Z,22.95
2024-02-26T09:16:56.492Z,22.97
2024-02-26T09:17:56.624Z,22.96
2024-02-26T09:18:56.733Z,22.96
2024-02-26T09:19:56.852Z,22.96
2024-02-26T09:20:57.017Z,22.96
2024-02-26T09:21:56.964Z,22.97
2024-02-26T09:22:56.916Z,22.95
2024-02-26T09:23:57.107Z,22.95
2024-02-26T09:24:56.992Z,22.93
2024-02-26T09:25:57.016Z,22.78
2024-02-26T09:26:57.526Z,22.47
2024-02-26T09:27:57.098Z,22.17
2024-02-26T09:28:57.130Z,21.80
2024-02-26T09:29:57.192Z,21.42
2024-02-26T09:30:57.460Z,21.03
2024-02-26T09:31:57.234Z,20.78
2024-02-26T09:32:57.341Z,20.79
2024-02-26T09:34:01.173Z,20.86
2024-02-26T09:34:58.325Z,20.85
2024-02-26T09:35:57.354Z,20.88
2024-02-26T09:37:04.845Z,20.91
2024-02-26T09:37:58.362Z,20.95
2024-02-26T09:39:01.361Z,21.04
2024-02-26T09:39:57.436Z,21.10
2024-02-26T09:40:57.493Z,21.17
2024-02-26T09:41:57.410Z,21.24
2024-02-26T09:42:57.326Z,21.30
2024-02-26T09:43:57.409Z,21.38
2024-02-26T09:44:57.341Z,21.45
2024-02-26T09:45:57.370Z,21.55
2024-02-26T09:46:57.480Z,21.65
2024-02-26T09:47:57.704Z,21.73
2024-02-26T09:48:57.532Z,21.80
2024-02-26T09:49:57.416Z,21.88
2024-02-26T09:50:57.416Z,21.95
2024-02-26T09:51:57.474Z,22.02
2024-02-26T09:52:57.389Z,22.06
2024-02-26T09:53:57.407Z,22.10
2024-02-26T09:54:57.352Z,22.15
2024-02-26T09:55:57.443Z,22.18
2024-02-26T09:57:03.958Z,22.21
2024-02-26T09:57:58.536Z,22.22
2024-02-26T09:58:57.443Z,22.25
2024-02-26T09:59:57.401Z,22.27
2024-02-26T10:00:57.415Z,22.29
2024-02-26T10:01:57.378Z,22.31
2024-02-26T10:02:57.436Z,22.33
2024-02-26T10:03:57.460Z,22.34
2024-02-26T10:04:57.514Z,22.36
2024-02-26T10:05:57.504Z,22.37
2024-02-26T10:06:57.466Z,22.38
2024-02-26T10:07:57.393Z,22.40
2024-02-26T10:08:57.497Z,22.40
2024-02-26T10:09:57.403Z,22.40
2024-02-26T10:10:57.399Z,22.41
2024-02-26T10:11:57.541Z,22.43
2024-02-26T10:12:57.535Z,22.42
2024-02-26T10:13:57.382Z,22.44
2024-02-26T10:14:57.429Z,22.45
2024-02-26T10:15:57.386Z,22.45
2024-02-26T10:16:57.544Z,22.46
2024-02-26T10:17:57.650Z,22.46
2024-02-26T10:18:59.734Z,22.47
2024-02-26T10:19:57.625Z,22.48
2024-02-26T10:20:57.480Z,22.48
2024-02-26T10:21:57.577Z,22.49
2024-02-26T10:22:57.481Z,22.49
2024-02-26T10:23:57.569Z,22.50
2024-02-26T10:24:57.484Z,22.50
2024-02-26T10:25:57.493Z,22.51
2024-02-26T10:26:57.537Z,22.51
2024-02-26T10:27:57.579Z,22.51
2024-02-26T10:28:57.490Z,22.52
2024-02-26T10:29:57.498Z,22.53
2024-02-26T10:30:57.513Z,22.53
2024-02-26T10:31:58.029Z,22.54
2024-02-26T10:32:57.623Z,22.52
2024-02-26T10:33:58.009Z,22.53
2024-02-26T10:34:57.664Z,22.53
2024-02-26T10:35:57.528Z,22.52
2024-02-26T10:36:58.610Z,22.52
2024-02-26T10:37:57.512Z,22.50
2024-02-26T10:38:57.542Z,22.48
2024-02-26T10:39:57.572Z,22.50
2024-02-26T10:40:57.555Z,22.52
2024-02-26T10:41:58.044Z,22.53
2024-02-26T10:42:57.599Z,22.54
2024-02-26T10:43:57.604Z,22.55
2024-02-26T10:44:57.643Z,22.54
2024-02-26T10:45:57.575Z,22.54
2024-02-26T10:46:57.988Z,22.53
2024-02-26T10:47:57.732Z,22.55
2024-02-26T10:48:57.686Z,22.58
2024-02-26T10:49:57.645Z,22.60
2024-02-26T10:50:57.568Z,22.62
2024-02-26T10:51:57.667Z,22.64
2024-02-26T10:52:57.566Z,22.65
2024-02-26T10:54:01.436Z,22.67
2024-02-26T10:55:00.537Z,22.69
2024-02-26T10:55:57.573Z,22.70
2024-02-26T10:56:57.645Z,22.72
2024-02-26T10:57:57.554Z,22.73
2024-02-26T10:58:57.541Z,22.75
2024-02-26T10:59:57.822Z,22.77
2024-02-26T11:00:57.619Z,22.79
2024-02-26T11:01:57.551Z,22.77
2024-02-26T11:02:57.605Z,22.77
2024-02-26T11:03:57.675Z,22.78
2024-02-26T11:04:57.642Z,22.77
2024-02-26T11:05:57.648Z,22.79
2024-02-26T11:06:57.760Z,22.81
2024-02-26T11:07:57.554Z,22.82
2024-02-26T11:08:57.582Z,22.84
2024-02-26T11:09:57.550Z,22.85
2024-02-26T11:10:57.645Z,22.86
2024-02-26T11:11:57.637Z,22.88
2024-02-26T11:12:57.579Z,22.88
2024-02-26T11:13:57.566Z,22.89
2024-02-26T11:14:57.586Z,22.88
2024-02-26T11:15:57.689Z,22.88
2024-02-26T11:16:57.573Z,22.86
2024-02-26T11:17:57.659Z,22.86
2024-02-26T11:18:57.743Z,22.86
2024-02-26T11:19:57.574Z,22.86
2024-02-26T11:20:57.619Z,22.86
2024-02-26T11:21:59.050Z,22.85
2024-02-26T11:22:57.588Z,22.84
2024-02-26T11:23:57.617Z,22.82
2024-02-26T11:24:57.579Z,22.83
2024-02-26T11:25:57.582Z,22.84
2024-02-26T11:26:57.595Z,22.83
2024-02-26T11:27:57.580Z,22.83
2024-02-26T11:28:57.579Z,22.85
2024-02-26T11:29:57.614Z,22.84
2024-02-26T11:30:57.584Z,22.83
2024-02-26T11:31:58.121Z,22.83
2024-02-26T11:32:57.709Z,22.85
2024-02-26T11:33:57.816Z,22.86
2024-02-26T11:34:57.681Z,22.85
2024-02-26T11:35:57.651Z,22.85
2024-02-26T11:36:58.012Z,22.83
2024-02-26T11:37:57.804Z,22.83
2024-02-26T11:38:57.610Z,22.84
2024-02-26T11:39:57.595Z,22.84
2024-02-26T11:40:57.589Z,22.84
2024-02-26T11:41:58.066Z,22.82
2024-02-26T11:42:57.600Z,22.84
2024-02-26T11:43:57.610Z,22.84
2024-02-26T11:44:57.603Z,22.85
2024-02-26T11:45:57.604Z,22.83
2024-02-26T11:46:58.054Z,22.84
2024-02-26T11:47:57.960Z,22.86
2024-02-26T11:48:57.696Z,22.85
2024-02-26T11:49:57.644Z,22.85
2024-02-26T11:50:57.680Z,22.85
2024-02-26T11:51:57.608Z,22.85
2024-02-26T11:52:57.659Z,22.84
2024-02-26T11:53:57.636Z,22.84
2024-02-26T11:54:57.610Z,22.85
2024-02-26T11:55:57.623Z,22.82
2024-02-26T11:56:57.672Z,22.83
2024-02-26T11:57:57.645Z,22.83
2024-02-26T11:58:57.630Z,22.82
2024-02-26T11:59:57.630Z,22.82
2024-02-26T12:00:57.641Z,22.81
2024-02-26T12:02:00.151Z,22.81
2024-02-26T12:02:57.665Z,22.82
2024-02-26T12:03:57.750Z,22.82
2024-02-26T12:04:57.677Z,22.82
2024-02-26T12:05:57.702Z,22.84
2024-02-26T12:06:57.857Z,22.84
2024-02-26T12:07:57.638Z,22.84
2024-02-26T12:08:57.694Z,22.81
2024-02-26T12:09:57.639Z,22.81
2024-02-26T12:10:57.650Z,22.82
2024-02-26T12:11:57.730Z,22.82
2024-02-26T12:12:57.712Z,22.81
2024-02-26T12:13:57.653Z,22.82
2024-02-26T12:14:57.787Z,22.87
2024-02-26T12:15:57.704Z,22.90
2024-02-26T12:16:57.638Z,22.94
2024-02-26T12:17:57.705Z,22.99
2024-02-26T12:18:57.726Z,23.01
2024-02-26T12:19:57.787Z,23.00
2024-02-26T12:20:57.805Z,23.00
2024-02-26T12:21:58.055Z,22.99
2024-02-26T12:22:57.675Z,22.97
2024-02-26T12:23:57.690Z,22.95
2024-02-26T12:24:57.741Z,22.93
2024-02-26T12:25:57.666Z,22.91
2024-02-26T12:26:58.139Z,22.88
2024-02-26T12:27:57.660Z,22.86
2024-02-26T12:28:57.675Z,22.84
2024-02-26T12:29:57.704Z,22.81
2024-02-26T12:30:57.671Z,22.79
2024-02-26T12:31:58.082Z,22.77
2024-02-26T12:32:57.753Z,22.75
2024-02-26T12:33:57.761Z,22.74
2024-02-26T12:34:58.099Z,22.72
2024-02-26T12:35:57.981Z,22.70
2024-02-26T12:36:57.677Z,22.69
2024-02-26T12:37:57.706Z,22.66
2024-02-26T12:38:57.708Z,22.65
2024-02-26T12:39:58.050Z,22.64
2024-02-26T12:40:57.680Z,22.62
2024-02-26T12:41:58.093Z,22.60
2024-02-26T12:42:57.696Z,22.58
2024-02-26T12:43:57.680Z,22.57
2024-02-26T12:44:57.708Z,22.56
2024-02-26T12:45:57.685Z,22.54
2024-02-26T12:46:58.063Z,22.52
2024-02-26T12:47:57.738Z,22.49
2024-02-26T12:48:57.829Z,22.48
2024-02-26T12:49:57.834Z,22.46
2024-02-26T12:50:57.729Z,22.45
2024-02-26T12:51:57.840Z,22.44
2024-02-26T12:52:57.698Z,22.43